createdAt,value
2023-01-21T00:04:23.045Z,68.06
2023-01-21T00:11:24.673Z,65.89
2023-01-21T00:18:27.121Z,68.66
2023-01-21T00:25:29.956Z,67.63
2023-01-21T00:32:31.532Z,66.33
2023-01-21T00:39:33.170Z,66.84
2023-01-21T00:46:34.884Z,67.59
2023-01-21T00:53:38.245Z,67.54
2023-01-21T01:00:39.889Z,71.20
2023-01-21T01:07:43.359Z,69.37
2023-01-21T01:14:45.133Z,68.44
2023-01-21T01:21:46.828Z,72.07
2023-01-21T01:28:48.649Z,69.89
2023-01-21T01:35:50.330Z,68.49
2023-01-21T01:42:51.975Z,67.19
2023-01-21T01:49:53.690Z,66.64
2023-01-21T01:56:56.419Z,66.70
2023-01-21T02:04:00.842Z,66.85
2023-01-21T02:11:03.288Z,67.49
2023-01-21T02:18:23.575Z,65.59
2023-01-21T02:25:43.480Z,65.77
2023-01-21T02:33:08.694Z,64.96
2023-01-21T02:40:14.099Z,66.02
2023-01-21T02:47:54.165Z,65.46
2023-01-21T02:54:58.026Z,65.46
2023-01-21T03:02:08.777Z,65.86
2023-01-21T03:09:18.005Z,66.81
2023-01-21T03:16:40.246Z,66.03
2023-01-21T03:23:44.905Z,66.64
2023-01-21T03:30:49.212Z,66.43
2023-01-21T03:38:13.209Z,65.98
2023-01-21T03:45:14.912Z,66.09
2023-01-21T03:52:16.482Z,65.58
2023-01-21T03:59:18.072Z,65.98
2023-01-21T04:06:20.952Z,65.94
2023-01-21T04:13:22.620Z,66.30
2023-01-21T04:20:24.283Z,66.19
2023-01-21T04:27:25.975Z,65.94
2023-01-21T04:34:27.654Z,66.04
2023-01-21T04:41:29.302Z,66.60
2023-01-21T04:48:31.371Z,66.66
2023-01-21T04:55:33.038Z,65.54
2023-01-21T05:02:34.724Z,65.71
2023-01-21T05:09:36.399Z,66.31
2023-01-21T05:16:38.157Z,66.79
2023-01-21T05:23:39.814Z,67.26
2023-01-21T05:30:43.280Z,67.03
2023-01-21T05:37:47.717Z,67.65
2023-01-21T05:44:49.352Z,66.68
2023-01-21T05:51:51.044Z,67.08
2023-01-21T05:58:52.647Z,67.22
2023-01-21T06:05:54.260Z,67.23
2023-01-21T06:12:55.939Z,67.05
2023-01-21T06:19:57.520Z,66.70
2023-01-21T06:26:59.172Z,69.39
2023-01-21T06:34:00.785Z,70.66
2023-01-21T06:41:03.103Z,71.05
2023-01-21T06:48:04.925Z,69.44
2023-01-21T06:55:06.845Z,69.23
2023-01-21T07:02:11.044Z,71.00
2023-01-21T07:09:12.713Z,71.32
2023-01-21T07:16:14.567Z,70.53
2023-01-21T07:23:16.204Z,70.27
2023-01-21T07:30:19.206Z,69.33
2023-01-21T07:37:21.018Z,69.61
2023-01-21T07:44:22.663Z,69.16
2023-01-21T07:51:24.348Z,70.42
2023-01-21T07:58:28.975Z,68.37
2023-01-21T08:05:30.764Z,68.39
2023-01-21T08:12:32.525Z,68.64
2023-01-21T08:19:34.185Z,68.82
2023-01-21T08:26:35.838Z,67.90
2023-01-21T08:33:37.781Z,68.48
2023-01-21T08:40:39.483Z,66.66
2023-01-21T08:47:41.139Z,66.84
2023-01-21T08:54:43.329Z,67.30
2023-01-21T09:01:45.198Z,67.06
2023-01-21T09:08:46.860Z,67.04
2023-01-21T09:15:48.500Z,66.70
2023-01-21T09:22:50.124Z,65.47
2023-01-21T09:29:51.812Z,66.83
2023-01-21T09:36:53.469Z,66.22
2023-01-21T09:44:01.149Z,65.80
2023-01-21T09:51:05.972Z,65.49
2023-01-21T09:58:48.130Z,66.01
2023-01-21T10:05:52.828Z,65.59
2023-01-21T10:13:00.301Z,65.04
2023-01-21T10:20:13.267Z,64.68
2023-01-21T10:27:16.430Z,64.89
2023-01-21T10:34:18.532Z,64.13
2023-01-21T10:41:45.075Z,63.82
2023-01-21T10:48:49.066Z,64.09
2023-01-21T10:56:15.415Z,64.76
2023-01-21T11:03:30.899Z,63.66
2023-01-21T11:10:32.580Z,64.81
2023-01-21T11:17:35.832Z,63.77
2023-01-21T11:24:45.400Z,63.81
2023-01-21T11:32:03.460Z,63.29
2023-01-21T11:39:06.469Z,62.84
2023-01-21T11:46:30.934Z,62.98
2023-01-21T11:53:32.619Z,63.06
2023-01-21T12:00:36.051Z,62.85
2023-01-21T12:07:39.259Z,62.55
2023-01-21T12:14:56.420Z,62.04
2023-01-21T12:22:21.297Z,60.89
2023-01-21T12:29:51.139Z,60.74
2023-01-21T12:37:00.371Z,59.88
2023-01-21T12:44:17.509Z,60.48
2023-01-21T12:51:37.493Z,59.83
2023-01-21T12:58:44.328Z,59.39
2023-01-21T13:05:57.215Z,59.74
2023-01-21T13:13:06.427Z,59.30
2023-01-21T13:20:17.981Z,58.82
2023-01-21T13:27:21.858Z,58.83
2023-01-21T13:34:32.411Z,58.67
2023-01-21T13:41:55.862Z,58.17
2023-01-21T13:49:16.479Z,59.82
2023-01-21T13:56:40.573Z,59.50
2023-01-21T14:03:48.255Z,59.35
2023-01-21T14:10:51.286Z,59.61
2023-01-21T14:18:04.221Z,59.04
2023-01-21T14:25:12.280Z,58.59
2023-01-21T14:32:32.236Z,58.90
2023-01-21T14:40:03.223Z,59.27
2023-01-21T14:47:17.385Z,58.83
2023-01-21T14:54:23.425Z,58.62
2023-01-21T15:01:38.654Z,57.48
2023-01-21T15:08:45.991Z,58.75
2023-01-21T15:16:17.189Z,60.22
2023-01-21T15:23:30.987Z,63.96
2023-01-21T15:30:45.097Z,64.62
2023-01-21T15:37:53.689Z,69.62
2023-01-21T15:45:17.019Z,71.99
2023-01-21T15:52:36.476Z,72.20
2023-01-21T16:00:00.164Z,73.28
2023-01-21T16:07:42.320Z,72.64
2023-01-21T16:14:53.386Z,72.84
2023-01-21T16:21:58.552Z,74.17
2023-01-21T16:29:00.268Z,74.90
2023-01-21T16:36:07.429Z,78.21
2023-01-21T16:43:22.959Z,78.29
2023-01-21T16:50:26.683Z,76.64
2023-01-21T16:57:31.946Z,78.30
2023-01-21T17:04:33.938Z,77.74
2023-01-21T17:11:36.743Z,79.59
2023-01-21T17:18:40.679Z,78.35
2023-01-21T17:25:42.622Z,78.88
2023-01-21T17:32:44.541Z,80.78
2023-01-21T17:39:46.588Z,81.80
2023-01-21T17:46:50.325Z,81.20
2023-01-21T17:53:56.400Z,82.35
2023-01-21T18:01:01.960Z,81.55
2023-01-21T18:08:04.573Z,82.05
2023-01-21T18:15:06.921Z,81.75
2023-01-21T18:22:14.755Z,82.86
2023-01-21T18:29:18.223Z,82.56
2023-01-21T18:36:19.930Z,84.60
2023-01-21T18:43:21.724Z,81.92
2023-01-21T18:50:27.516Z,82.39
2023-01-21T18:57:29.249Z,83.61
2023-01-21T19:04:31.144Z,83.73
2023-01-21T19:11:32.982Z,84.51
2023-01-21T19:18:36.189Z,84.43
2023-01-21T19:25:37.913Z,83.44
2023-01-21T19:32:39.731Z,83.06
2023-01-21T19:39:41.904Z,84.11
2023-01-21T19:46:43.846Z,82.67
2023-01-21T19:53:45.582Z,84.38
2023-01-21T20:00:49.141Z,83.98
2023-01-21T20:07:50.929Z,85.67
2023-01-21T20:14:52.567Z,84.71
2023-01-21T20:22:02.055Z,85.99
2023-01-21T20:29:06.510Z,86.46
2023-01-21T20:36:18.201Z,84.77
2023-01-21T20:43:20.533Z,84.34
2023-01-21T20:50:26.396Z,85.25
2023-01-21T20:57:28.057Z,83.96
2023-01-21T21:04:29.968Z,84.83
2023-01-21T21:11:31.724Z,84.76
2023-01-21T21:18:35.216Z,84.22
2023-01-21T21:25:40.689Z,84.46
2023-01-21T21:32:42.295Z,83.70
2023-01-21T21:39:43.922Z,85.02
2023-01-21T21:47:04.587Z,83.72
2023-01-21T21:54:07.802Z,83.20
2023-01-21T22:01:14.269Z,83.55
2023-01-21T22:08:16.220Z,84.18
2023-01-21T22:15:19.241Z,83.46
2023-01-21T22:22:21.230Z,84.53
2023-01-21T22:29:22.903Z,83.81
2023-01-21T22:36:25.594Z,83.51
2023-01-21T22:43:27.899Z,83.65
2023-01-21T22:50:29.616Z,85.25
2023-01-21T22:57:31.254Z,84.12
2023-01-21T23:04:32.935Z,84.17
2023-01-21T23:11:34.794Z,83.65
2023-01-21T23:18:40.632Z,83.07
2023-01-21T23:25:45.081Z,84.45
2023-01-21T23:32:46.907Z,83.02
2023-01-21T23:39:48.557Z,82.85
2023-01-21T23:46:50.486Z,82.65
2023-01-21T23:53:53.664Z,82.28
